LIMP/PMF METAR and TAF weather

Enter ICAO airport designator
Station Type Date Time Source
LIMP METAR 2019/10/19 05:50 UTC NOAA

LIMP 190550Z 10002KT 2500 BR BKN030 14/14 Q1015


Station Type Date Time Source
LIMP Decoded METAR 2019/10/19 05:50 UTC NOAA

Parma, Italy (LIMP) 44-49-17N 010-17-41E
Oct 19, 2019 - 01:50 AM EDT / 2019.10.19 0550 UTC
Wind: from the E (100 degrees) at 2 MPH (2 KT):0
Visibility: 1 mile(s):0
Sky conditions: mostly cloudy
Weather: mist
Temperature: 57 F (14 C)
Dew Point: 57 F (14 C)
Relative Humidity: 100%
Pressure (altimeter): 29.97 in. Hg (1015 hPa)
ob: LIMP 190550Z 10002KT 2500 BR BKN030 14/14 Q1015
cycle: 6

Station Type Date Time Source
LIMP TAF 2019/10/19 06:21 UTC NOAA

TAF LIMP 190500Z 1906/2006 VRB05KT 6000 SCT020 BKN050

Example: see airport list